Terminal Aerodrome Forecast
Issued by NWS

Home | Current Version | Previous Version | Text Only | Print | Product List | Glossary On
Versions: 1 2 3 4 5 6 7 8 9 10 11 12 13 14 15 16 17 18 19 20 21
000
FTUS41 KPBZ 201800 AAA
TAFDUJ
TAF AMD
KDUJ 201835Z 2019/2118 22010KT P6SM SCT040 BKN250
     FM210000 17008KT P6SM BKN250
     FM211300 19010KT P6SM -SHRA OVC025
     FM211700 23010KT P6SM BKN025=

USA.gov is the U.S. government's official web portal to all federal, state and local government web resources and services.